createdAt,value
2022-09-04T00:00:20.908Z,22.70
2022-09-04T00:03:22.546Z,20.85
2022-09-04T00:06:00.814Z,19.95
2022-09-04T00:09:07.154Z,19.90
2022-09-04T00:12:10.010Z,21.12
2022-09-04T00:15:05.955Z,18.27
2022-09-04T00:17:54.180Z,20.35
2022-09-04T00:20:43.162Z,22.95
2022-09-04T00:23:23.720Z,19.00
2022-09-04T00:26:37.036Z,17.75
2022-09-04T00:29:17.850Z,21.30
2022-09-04T00:31:58.541Z,17.77
2022-09-04T00:35:03.418Z,16.87
2022-09-04T00:40:31.550Z,23.92
2022-09-04T00:43:42.600Z,20.72
2022-09-04T00:46:44.366Z,21.17
2022-09-04T00:49:47.758Z,21.23
2022-09-04T00:52:44.529Z,21.37
2022-09-04T00:56:03.978Z,19.25
2022-09-04T00:58:52.633Z,23.98
2022-09-04T01:01:29.141Z,23.27
2022-09-04T01:04:35.470Z,19.60
2022-09-04T01:07:25.413Z,23.07
2022-09-04T01:10:06.740Z,16.07
2022-09-04T01:12:56.536Z,18.62
2022-09-04T01:15:52.665Z,18.75
2022-09-04T01:18:54.219Z,14.80
2022-09-04T01:22:03.346Z,19.02
2022-09-04T01:25:06.029Z,17.87
2022-09-04T01:27:59.098Z,16.77
2022-09-04T01:30:36.485Z,17.57
2022-09-04T01:33:33.114Z,16.00
2022-09-04T01:36:46.764Z,18.98
2022-09-04T01:39:21.733Z,23.77
2022-09-04T01:42:18.548Z,19.35
2022-09-04T01:44:52.002Z,21.27
2022-09-04T01:47:36.001Z,21.20
2022-09-04T01:50:25.985Z,23.12
2022-09-04T01:53:15.190Z,17.32
2022-09-04T01:55:56.226Z,19.73
2022-09-04T01:59:01.352Z,19.77
2022-09-04T02:02:00.423Z,18.10
2022-09-04T02:04:39.388Z,14.05
2022-09-04T02:07:33.983Z,21.70
2022-09-04T02:10:35.730Z,25.30
2022-09-04T02:14:09.360Z,25.23
2022-09-04T02:17:15.238Z,17.10
2022-09-04T02:20:06.025Z,15.28
2022-09-04T02:22:46.374Z,16.82
2022-09-04T02:25:54.288Z,15.50
2022-09-04T02:29:10.687Z,15.70
2022-09-04T02:32:07.017Z,14.90
2022-09-04T02:34:52.918Z,15.85
2022-09-04T02:37:53.038Z,13.47
2022-09-04T02:40:45.575Z,15.25
2022-09-04T02:43:41.300Z,12.43
2022-09-04T02:46:26.419Z,15.55
2022-09-04T02:52:12.285Z,15.32
2022-09-04T02:57:47.698Z,22.90
2022-09-04T03:00:23.123Z,22.15
2022-09-04T03:03:13.894Z,19.62
2022-09-04T03:06:09.404Z,17.05
2022-09-04T03:08:54.177Z,23.73
2022-09-04T03:11:37.192Z,16.00
2022-09-04T03:14:26.162Z,18.70
2022-09-04T03:17:19.241Z,19.32
2022-09-04T03:19:57.429Z,21.15
2022-09-04T03:22:50.690Z,23.22
2022-09-04T03:25:46.818Z,21.52
2022-09-04T03:28:32.295Z,13.93
2022-09-04T03:31:12.918Z,19.10
2022-09-04T03:33:51.073Z,18.30
2022-09-04T03:36:39.631Z,17.48
2022-09-04T03:39:26.066Z,18.37
2022-09-04T03:42:09.781Z,20.05
2022-09-04T03:45:09.281Z,24.92
2022-09-04T03:48:17.973Z,18.07
2022-09-04T03:51:04.877Z,17.20
2022-09-04T03:53:45.464Z,19.77
2022-09-04T03:56:32.111Z,16.27
2022-09-04T03:59:12.552Z,21.97
2022-09-04T04:02:20.060Z,17.57
2022-09-04T04:05:26.725Z,14.28
2022-09-04T04:08:31.963Z,17.62
2022-09-04T04:11:32.411Z,14.70
2022-09-04T04:14:16.956Z,16.10
2022-09-04T04:17:01.827Z,18.67
2022-09-04T04:20:07.198Z,18.20
2022-09-04T04:23:18.256Z,17.57
2022-09-04T04:26:11.557Z,18.70
2022-09-04T04:29:10.418Z,14.53
2022-09-04T04:32:14.141Z,15.63
2022-09-04T04:35:03.927Z,17.85
2022-09-04T04:38:09.761Z,13.48
2022-09-04T04:41:25.345Z,14.53
2022-09-04T04:44:09.046Z,14.70
2022-09-04T04:47:10.755Z,13.37
2022-09-04T04:50:16.607Z,14.85
2022-09-04T04:53:04.248Z,12.90
2022-09-04T04:56:11.662Z,10.13
2022-09-04T04:59:24.033Z,12.55
2022-09-04T05:02:23.724Z,9.25
2022-09-04T05:05:27.869Z,12.03
2022-09-04T05:08:10.699Z,17.70
2022-09-04T05:11:16.645Z,13.70
2022-09-04T05:14:43.103Z,11.90
2022-09-04T05:17:42.081Z,9.13
2022-09-04T05:20:42.310Z,9.23
2022-09-04T05:23:19.957Z,12.05
2022-09-04T05:26:33.599Z,8.10
2022-09-04T05:29:51.281Z,10.08
2022-09-04T05:33:00.424Z,8.33
2022-09-04T05:35:48.013Z,7.35
2022-09-04T05:39:00.262Z,8.78
2022-09-04T05:42:06.276Z,8.43
2022-09-04T05:45:07.164Z,12.05
2022-09-04T05:48:15.567Z,7.80
2022-09-04T05:51:28.095Z,6.95
2022-09-04T05:54:31.479Z,7.80
2022-09-04T05:57:19.023Z,8.58
2022-09-04T05:59:57.554Z,11.97
2022-09-04T06:03:06.829Z,9.43
2022-09-04T06:06:06.584Z,5.15
2022-09-04T06:09:17.471Z,5.67
2022-09-04T06:12:36.635Z,7.10
2022-09-04T06:15:54.475Z,4.75
2022-09-04T06:18:55.638Z,5.00
2022-09-04T06:21:54.425Z,10.90
2022-09-04T06:24:50.146Z,3.42
2022-09-04T06:28:17.416Z,4.62
2022-09-04T06:34:13.985Z,2.85
2022-09-04T06:37:06.662Z,5.58
2022-09-04T06:40:05.580Z,5.22
2022-09-04T06:43:07.209Z,5.12
2022-09-04T06:46:02.598Z,5.08
2022-09-04T06:49:02.804Z,3.20
2022-09-04T06:51:59.645Z,6.78
2022-09-04T06:54:53.836Z,7.05
2022-09-04T06:57:35.655Z,6.20
2022-09-04T07:00:10.991Z,5.92
2022-09-04T07:03:20.111Z,4.75
2022-09-04T07:06:06.207Z,6.22
2022-09-04T07:09:04.077Z,6.75
2022-09-04T07:11:59.896Z,7.12
2022-09-04T07:14:50.188Z,4.80
2022-09-04T07:17:41.840Z,3.80
2022-09-04T07:20:34.974Z,7.55
2022-09-04T07:23:16.148Z,5.87
2022-09-04T07:26:25.203Z,4.97
2022-09-04T07:29:37.599Z,4.75
2022-09-04T07:32:26.801Z,6.03
2022-09-04T07:35:40.646Z,8.18
2022-09-04T07:38:50.899Z,7.50
2022-09-04T07:42:03.792Z,7.00
2022-09-04T07:45:08.931Z,3.52
2022-09-04T07:48:08.292Z,5.60
2022-09-04T07:51:14.058Z,3.45
2022-09-04T07:54:09.893Z,4.08
2022-09-04T07:56:54.794Z,6.08
2022-09-04T08:00:00.561Z,2.50
2022-09-04T08:03:05.905Z,7.70
2022-09-04T08:06:17.446Z,3.25
2022-09-04T08:09:20.169Z,3.98
2022-09-04T08:12:14.901Z,2.52
2022-09-04T08:15:00.028Z,5.95
2022-09-04T08:18:06.155Z,2.98
2022-09-04T08:21:17.011Z,3.52
2022-09-04T08:24:20.700Z,3.10
2022-09-04T08:27:21.110Z,4.97
2022-09-04T08:30:12.555Z,3.02
2022-09-04T08:33:28.528Z,2.75
2022-09-04T08:36:18.833Z,8.88
2022-09-04T08:39:08.737Z,2.08
2022-09-04T08:42:12.723Z,1.72
2022-09-04T08:44:50.916Z,1.75
2022-09-04T08:47:54.079Z,4.62
2022-09-04T08:50:56.517Z,4.87
2022-09-04T08:54:05.042Z,3.25
2022-09-04T08:57:06.381Z,2.35
2022-09-04T09:00:17.502Z,2.75
2022-09-04T09:03:02.123Z,2.67
2022-09-04T09:06:12.640Z,2.27
2022-09-04T09:09:11.140Z,1.30
2022-09-04T09:11:59.028Z,6.15
2022-09-04T09:14:48.887Z,3.33
2022-09-04T09:17:35.326Z,4.60
2022-09-04T09:20:37.978Z,2.65
2022-09-04T09:23:23.650Z,1.82
2022-09-04T09:26:44.673Z,3.62
2022-09-04T09:30:02.514Z,1.60
2022-09-04T09:33:18.514Z,4.70
2022-09-04T09:36:12.473Z,2.45
2022-09-04T09:39:13.193Z,2.05
2022-09-04T09:42:25.605Z,3.25
2022-09-04T09:45:18.426Z,1.60
2022-09-04T09:48:21.039Z,4.47
2022-09-04T09:51:32.830Z,6.90
2022-09-04T09:54:55.652Z,2.22
2022-09-04T09:57:48.577Z,1.82
2022-09-04T10:00:25.464Z,2.85
2022-09-04T10:03:17.807Z,4.20
2022-09-04T10:06:17.728Z,1.55
2022-09-04T10:09:31.667Z,1.60
2022-09-04T10:12:26.273Z,3.20
2022-09-04T10:15:31.716Z,5.37
2022-09-04T10:18:38.334Z,6.05
2022-09-04T10:21:59.552Z,2.40
2022-09-04T10:25:07.922Z,3.87
2022-09-04T10:28:13.072Z,1.90
2022-09-04T10:31:21.535Z,1.30
2022-09-04T10:34:02.575Z,3.10
2022-09-04T10:37:02.013Z,2.08
2022-09-04T10:40:00.264Z,1.50
2022-09-04T10:43:03.971Z,2.80
2022-09-04T10:45:47.566Z,2.12
2022-09-04T10:49:02.142Z,3.47
2022-09-04T10:52:25.877Z,3.58
2022-09-04T10:55:30.077Z,1.90
2022-09-04T10:58:32.659Z,1.75
2022-09-04T11:01:44.952Z,1.77
2022-09-04T11:04:54.442Z,2.33
2022-09-04T11:08:05.992Z,2.87
2022-09-04T11:10:59.310Z,3.67
2022-09-04T11:14:16.777Z,2.27
2022-09-04T11:17:20.461Z,3.70
2022-09-04T11:20:10.164Z,2.02
2022-09-04T11:23:02.685Z,3.12
2022-09-04T11:26:08.896Z,1.92
2022-09-04T11:29:21.377Z,1.67
2022-09-04T11:32:13.925Z,1.22
2022-09-04T11:35:30.540Z,2.52
2022-09-04T11:38:53.771Z,3.45
2022-09-04T11:42:10.449Z,1.35
2022-09-04T11:45:03.958Z,1.52
2022-09-04T11:47:59.877Z,2.03
2022-09-04T11:51:01.857Z,3.22
2022-09-04T11:54:01.426Z,2.55
2022-09-04T11:56:42.289Z,3.00
2022-09-04T11:59:42.140Z,1.57
2022-09-04T12:02:59.256Z,1.77
2022-09-04T12:05:50.421Z,1.75
2022-09-04T12:08:45.577Z,1.32
2022-09-04T12:12:01.278Z,3.42
2022-09-04T12:14:51.530Z,3.15
2022-09-04T12:18:10.578Z,6.65
2022-09-04T12:21:03.016Z,1.35
2022-09-04T12:24:04.924Z,2.17
2022-09-04T12:27:17.110Z,1.25
2022-09-04T12:30:06.593Z,2.42
2022-09-04T12:32:50.845Z,1.10
2022-09-04T12:35:52.007Z,3.98
2022-09-04T12:38:48.636Z,2.77
2022-09-04T12:41:49.217Z,2.45
2022-09-04T12:44:45.341Z,1.35
2022-09-04T12:47:57.340Z,3.12
2022-09-04T12:50:36.290Z,1.60
2022-09-04T12:53:35.206Z,1.60
2022-09-04T12:56:33.463Z,3.27
2022-09-04T12:59:43.041Z,5.42
2022-09-04T13:02:50.948Z,3.05
2022-09-04T13:05:51.749Z,1.92
2022-09-04T13:09:02.946Z,3.25
2022-09-04T13:12:09.411Z,1.45
2022-09-04T13:15:08.805Z,2.05
2022-09-04T13:18:06.555Z,1.60
2022-09-04T13:20:53.226Z,3.75
2022-09-04T13:23:59.439Z,3.45
2022-09-04T13:27:04.960Z,3.92
2022-09-04T13:29:46.053Z,1.40
2022-09-04T13:32:52.087Z,2.85
2022-09-04T13:35:55.010Z,1.82
2022-09-04T13:38:38.683Z,2.22
2022-09-04T13:41:49.564Z,2.00
2022-09-04T13:45:06.175Z,4.65
2022-09-04T13:48:10.706Z,3.58
2022-09-04T13:50:56.169Z,3.85
2022-09-04T13:53:51.598Z,2.00
2022-09-04T13:56:32.673Z,1.75
2022-09-04T13:59:09.894Z,3.05
2022-09-04T14:01:50.267Z,1.72
2022-09-04T14:04:30.229Z,2.50
2022-09-04T14:07:07.442Z,2.37
2022-09-04T14:09:45.579Z,5.80
2022-09-04T14:12:40.515Z,5.70
2022-09-04T14:15:33.109Z,6.05
2022-09-04T14:18:48.709Z,4.85
2022-09-04T14:21:46.127Z,3.20
2022-09-04T14:24:32.522Z,2.55
2022-09-04T14:27:19.615Z,3.37
2022-09-04T14:30:22.409Z,4.80
2022-09-04T14:33:22.504Z,2.65
2022-09-04T14:39:21.500Z,5.08
2022-09-04T14:42:28.709Z,3.02
2022-09-04T14:45:30.593Z,3.55
2022-09-04T14:48:24.619Z,2.95
2022-09-04T14:51:00.685Z,4.50
2022-09-04T14:53:36.403Z,2.17
2022-09-04T14:56:18.133Z,4.30
2022-09-04T14:59:11.285Z,3.37
2022-09-04T15:02:13.463Z,4.28
2022-09-04T15:05:21.231Z,1.85
2022-09-04T15:08:00.520Z,6.10
2022-09-04T15:10:50.936Z,4.40
2022-09-04T15:13:50.456Z,4.50
2022-09-04T15:16:36.436Z,10.28
2022-09-04T15:19:51.673Z,12.45
2022-09-04T15:22:40.351Z,24.63
2022-09-04T15:25:58.249Z,5.95
2022-09-04T15:28:27.643Z,5.28
2022-09-04T15:31:31.528Z,3.00
2022-09-04T15:34:11.349Z,3.40
2022-09-04T15:36:45.085Z,9.50
2022-09-04T15:39:35.526Z,6.33
2022-09-04T15:42:32.494Z,6.15
2022-09-04T15:45:28.661Z,4.60
2022-09-04T15:48:42.606Z,9.30
2022-09-04T15:51:38.461Z,5.05
2022-09-04T15:54:43.870Z,5.17
2022-09-04T15:57:33.077Z,3.22
2022-09-04T16:00:15.318Z,4.22
2022-09-04T16:03:15.442Z,6.62
2022-09-04T16:06:00.967Z,4.87
2022-09-04T16:08:45.467Z,4.22
2022-09-04T16:12:00.768Z,7.40
2022-09-04T16:14:47.845Z,6.17
2022-09-04T16:17:27.887Z,4.62
2022-09-04T16:20:10.577Z,6.60
2022-09-04T16:22:50.858Z,5.62
2022-09-04T16:25:32.696Z,3.02
2022-09-04T16:28:29.635Z,4.90
2022-09-04T16:31:07.952Z,6.92
2022-09-04T16:33:48.559Z,7.85
2022-09-04T16:36:46.002Z,5.92
2022-09-04T16:39:45.004Z,7.35
2022-09-04T16:42:28.364Z,4.70
2022-09-04T16:45:12.251Z,7.85
2022-09-04T16:48:26.836Z,9.95
2022-09-04T16:51:09.870Z,5.10
2022-09-04T16:53:58.790Z,4.65
2022-09-04T16:56:47.669Z,5.70
2022-09-04T16:59:46.136Z,14.28
2022-09-04T17:02:52.137Z,6.05
2022-09-04T17:05:50.837Z,4.87
2022-09-04T17:08:55.350Z,4.37
2022-09-04T17:11:55.648Z,2.75
2022-09-04T17:14:46.039Z,3.67
2022-09-04T17:17:31.209Z,9.10
2022-09-04T17:20:08.190Z,7.12
2022-09-04T17:27:32.410Z,5.87
2022-09-04T17:29:09.207Z,3.80
2022-09-04T17:29:29.778Z,5.92
2022-09-04T17:31:45.321Z,6.83
2022-09-04T17:40:16.412Z,4.50
2022-09-04T17:40:48.435Z,13.70
2022-09-04T17:41:36.792Z,9.63
2022-09-04T17:44:11.577Z,12.47
2022-09-04T17:47:07.405Z,6.37
2022-09-04T17:49:50.873Z,6.15
2022-09-04T17:52:34.136Z,9.05
2022-09-04T17:55:12.723Z,5.28
2022-09-04T17:58:05.723Z,6.45
2022-09-04T18:01:15.179Z,6.65
2022-09-04T18:04:21.553Z,4.47
2022-09-04T18:06:51.640Z,7.12
2022-09-04T18:10:06.822Z,10.23
2022-09-04T18:12:51.755Z,8.50
2022-09-04T18:15:39.669Z,7.62
2022-09-04T18:18:31.774Z,12.25
2022-09-04T18:21:32.336Z,13.18
2022-09-04T18:24:24.951Z,13.08
2022-09-04T18:27:12.764Z,15.83
2022-09-04T18:33:05.374Z,18.98
2022-09-04T18:37:07.962Z,13.90
2022-09-04T18:37:15.979Z,17.80
2022-09-04T18:38:20.959Z,19.50
2022-09-04T18:50:21.469Z,14.03
2022-09-04T18:50:34.161Z,20.08
2022-09-04T18:50:51.228Z,14.35
2022-09-04T18:51:55.822Z,12.85
2022-09-04T18:54:43.264Z,21.42
2022-09-04T18:57:32.626Z,23.05
2022-09-04T19:00:12.021Z,21.17
2022-09-04T19:02:59.371Z,15.08
2022-09-04T19:05:44.911Z,17.15
2022-09-04T19:08:13.442Z,12.18
2022-09-04T19:10:56.903Z,15.50
2022-09-04T19:13:40.713Z,16.35
2022-09-04T19:16:53.125Z,21.90
2022-09-04T19:20:06.657Z,16.12
2022-09-04T19:22:50.129Z,15.68
2022-09-04T19:25:35.404Z,18.27
2022-09-04T19:28:16.631Z,25.88
2022-09-04T19:30:54.263Z,16.00
2022-09-04T19:33:32.866Z,16.35
2022-09-04T19:36:32.273Z,15.70
2022-09-04T19:45:59.169Z,23.55
2022-09-04T19:46:03.257Z,14.63
2022-09-04T19:46:08.156Z,13.20
2022-09-04T19:48:16.724Z,13.90
2022-09-04T19:53:17.967Z,13.58
2022-09-04T19:57:31.150Z,17.05
2022-09-04T19:59:45.827Z,13.20
2022-09-04T20:02:35.532Z,13.28
2022-09-04T20:05:17.593Z,13.45
2022-09-04T20:08:20.224Z,16.55
2022-09-04T20:11:04.151Z,14.68
2022-09-04T20:13:50.217Z,14.98
2022-09-04T20:16:39.150Z,12.13
2022-09-04T20:19:30.329Z,15.35
2022-09-04T20:22:28.447Z,15.23
2022-09-04T20:25:25.311Z,17.77
2022-09-04T20:28:21.114Z,12.63
2022-09-04T20:31:36.272Z,10.23
2022-09-04T20:34:42.512Z,11.33
2022-09-04T20:37:44.786Z,14.93
2022-09-04T20:40:41.975Z,10.45
2022-09-04T20:43:32.206Z,13.53
2022-09-04T20:48:07.710Z,11.00
2022-09-04T20:52:55.450Z,10.03
2022-09-04T20:53:06.289Z,12.35
2022-09-04T20:54:58.789Z,12.33
2022-09-04T21:03:11.196Z,17.15
2022-09-04T21:03:23.990Z,11.53
2022-09-04T21:06:15.101Z,8.70
2022-09-04T21:09:22.325Z,10.18
2022-09-04T21:12:15.914Z,10.15
2022-09-04T21:14:55.296Z,13.40
2022-09-04T21:18:06.930Z,10.63
2022-09-04T21:21:00.897Z,12.25
2022-09-04T21:23:53.057Z,9.95
2022-09-04T21:26:49.885Z,11.73
2022-09-04T21:29:33.442Z,14.50
2022-09-04T21:32:35.998Z,11.83
2022-09-04T21:35:22.007Z,12.07
2022-09-04T21:38:55.407Z,11.33
2022-09-04T21:42:19.318Z,8.53
2022-09-04T21:45:25.743Z,8.45
2022-09-04T21:48:23.556Z,8.48
2022-09-04T21:51:17.053Z,9.83
2022-09-04T21:53:53.655Z,7.87
2022-09-04T22:02:25.956Z,8.95
2022-09-04T22:02:40.285Z,9.93
2022-09-04T22:03:08.988Z,9.95
2022-09-04T22:06:19.035Z,11.93
2022-09-04T22:13:30.138Z,10.28
2022-09-04T22:13:38.393Z,7.20
2022-09-04T22:14:59.418Z,9.48
2022-09-04T22:18:07.804Z,7.58
2022-09-04T22:20:54.053Z,11.10
2022-09-04T22:24:14.785Z,7.35
2022-09-04T22:27:04.923Z,12.98
2022-09-04T22:30:06.521Z,10.35
2022-09-04T22:33:23.080Z,8.30
2022-09-04T22:36:38.316Z,7.53
2022-09-04T22:39:54.766Z,9.85
2022-09-04T22:42:58.302Z,9.73
2022-09-04T22:45:54.973Z,7.17
2022-09-04T22:49:12.999Z,7.85
2022-09-04T22:52:03.024Z,8.05
2022-09-04T22:55:17.846Z,11.05
2022-09-04T22:58:03.495Z,7.30
2022-09-04T23:03:42.149Z,8.08
2022-09-04T23:12:06.450Z,8.50
2022-09-04T23:13:43.008Z,6.53
2022-09-04T23:13:47.941Z,5.53
2022-09-04T23:16:28.591Z,8.43
2022-09-04T23:24:21.234Z,7.87
2022-09-04T23:26:38.330Z,8.15
2022-09-04T23:26:43.576Z,6.87
2022-09-04T23:27:52.236Z,8.85
2022-09-04T23:30:27.932Z,7.90
2022-09-04T23:33:33.149Z,9.23
2022-09-04T23:36:21.363Z,8.15
2022-09-04T23:39:28.985Z,7.15
2022-09-04T23:42:36.713Z,5.70
2022-09-04T23:46:01.539Z,6.92
2022-09-04T23:48:46.471Z,6.90
2022-09-04T23:51:39.790Z,10.38
2022-09-04T23:54:41.380Z,6.28
2022-09-04T23:57:51.675Z,5.97
